White Rock, New Mexico
Current Conditions -  °F | °C
As of 1:35 AM on Friday 24 Oct 2014 (Local Time) from KLAM Reporting Station
Clear Clear  
Wind Chill: 13°   Ceiling: Unl
Heat Index: 13°   Visibility: 10mi
Dew Point: -2°   Wind: 0mph
Humidity: 34%   Direction: NA
Pressure: 30.38"   Gusts: NA
Location:  35.8375°N, 106.349°W
Report Text: KLAM 240735Z AUTO 00000KT 10SM CLR 13/M02 A3038 RMK AO2 T01341023
Loading
Personal Weather Stations






























Interactive Weather Map
Tropical Storm Tracking
New forecast layout! Learn more

10-Day Weather Forecast

Advertisements
Track Severe Weather on mobile